createdAt,value
2018-03-20T00:00:27.060Z,97542.38
2018-03-20T00:02:55.830Z,97541.95
2018-03-20T00:05:24.653Z,97542.88
2018-03-20T00:07:53.375Z,97545.44
2018-03-20T00:10:22.060Z,97550.16
2018-03-20T00:12:50.616Z,97549.06
2018-03-20T00:15:19.312Z,97553.57
2018-03-20T00:17:48.026Z,97553.41
2018-03-20T00:20:17.015Z,97554.23
2018-03-20T00:22:46.339Z,97552.59
2018-03-20T00:25:14.916Z,97549.53
2018-03-20T00:27:43.616Z,97556.20
2018-03-20T00:30:12.278Z,97547.98
2018-03-20T00:32:41.775Z,97544.63
2018-03-20T00:35:10.619Z,97539.27
2018-03-20T00:37:39.367Z,97545.75
2018-03-20T00:40:08.998Z,97550.53
2018-03-20T00:42:39.271Z,97540.86
2018-03-20T00:45:08.035Z,97546.78
2018-03-20T00:47:37.636Z,97548.52
2018-03-20T00:50:07.040Z,97544.08
2018-03-20T00:52:35.934Z,97548.86
2018-03-20T00:55:04.574Z,97549.55
2018-03-20T00:57:33.238Z,97550.19
2018-03-20T01:00:01.826Z,97544.05
2018-03-20T01:02:31.323Z,97542.13
2018-03-20T01:05:00.095Z,97543.05
2018-03-20T01:07:28.899Z,97542.69
2018-03-20T01:09:57.622Z,97541.84
2018-03-20T01:12:26.830Z,97541.13
2018-03-20T01:14:55.526Z,97543.66
2018-03-20T01:17:24.101Z,97538.05
2018-03-20T01:19:54.287Z,97540.03
2018-03-20T01:22:23.747Z,97542.64
2018-03-20T01:24:53.958Z,97547.94
2018-03-20T01:27:22.839Z,97535.70
2018-03-20T01:29:51.539Z,97535.28
2018-03-20T01:32:20.276Z,97531.53
2018-03-20T01:34:49.503Z,97524.25
2018-03-20T01:37:18.179Z,97527.69
2018-03-20T01:39:46.958Z,97523.11
2018-03-20T01:42:16.951Z,97525.71
2018-03-20T01:44:46.010Z,97525.42
2018-03-20T01:47:17.683Z,97519.27
2018-03-20T01:49:47.238Z,97517.20
2018-03-20T01:52:15.990Z,97511.88
2018-03-20T01:54:44.710Z,97502.60
2018-03-20T01:57:13.360Z,97501.71
2018-03-20T01:59:43.215Z,97495.94
2018-03-20T02:02:12.135Z,97498.48
2018-03-20T02:04:41.407Z,97499.77
2018-03-20T02:07:10.960Z,97496.42
2018-03-20T02:09:39.602Z,97505.38
2018-03-20T02:12:08.279Z,97497.61
2018-03-20T02:14:37.174Z,97498.26
2018-03-20T02:17:06.705Z,97501.42
2018-03-20T02:19:36.164Z,97509.91
2018-03-20T02:22:04.864Z,97506.64
2018-03-20T02:24:33.867Z,97502.50
2018-03-20T02:27:02.470Z,97501.27
2018-03-20T02:29:31.062Z,97498.61
2018-03-20T02:31:59.783Z,97497.23
2018-03-20T02:34:28.467Z,97498.92
2018-03-20T02:36:58.134Z,97494.16
2018-03-20T02:39:27.314Z,97493.36
2018-03-20T02:41:56.164Z,97506.68
2018-03-20T02:44:24.653Z,97509.76
2018-03-20T02:46:53.652Z,97501.36
2018-03-20T02:49:22.561Z,97505.46
2018-03-20T02:51:52.143Z,97495.19
2018-03-20T02:54:20.704Z,97491.64
2018-03-20T02:56:49.325Z,97489.42
2018-03-20T02:59:17.947Z,97497.72
2018-03-20T03:01:46.581Z,97499.77
2018-03-20T03:04:15.211Z,97501.59
2018-03-20T03:06:43.859Z,97506.23
2018-03-20T03:09:12.608Z,97507.32
2018-03-20T03:11:41.934Z,97507.05
2018-03-20T03:14:11.417Z,97511.92
2018-03-20T03:16:40.147Z,97519.98
2018-03-20T03:19:09.188Z,97511.77
2018-03-20T03:21:39.424Z,97515.05
2018-03-20T03:24:09.305Z,97526.60
2018-03-20T03:26:38.103Z,97525.84
2018-03-20T03:29:06.872Z,97511.94
2018-03-20T03:31:36.364Z,97514.61
2018-03-20T03:34:05.135Z,97520.47
2018-03-20T03:36:33.871Z,97516.48
2018-03-20T03:39:02.816Z,97504.61
2018-03-20T03:41:31.686Z,97508.45
2018-03-20T03:44:00.379Z,97509.02
2018-03-20T03:46:29.020Z,97513.59
2018-03-20T03:48:59.433Z,97511.19
2018-03-20T03:51:28.640Z,97512.77
2018-03-20T03:53:57.479Z,97510.00
2018-03-20T03:56:27.500Z,97505.34
2018-03-20T03:58:56.142Z,97505.61
2018-03-20T04:01:24.872Z,97507.92
2018-03-20T04:03:54.392Z,97508.95
2018-03-20T04:06:23.075Z,97503.69
2018-03-20T04:08:51.863Z,97501.39
2018-03-20T04:11:20.594Z,97510.20
2018-03-20T04:13:49.393Z,97513.63
2018-03-20T04:16:18.077Z,97506.85
2018-03-20T04:18:47.450Z,97515.55
2018-03-20T04:21:16.855Z,97508.22
2018-03-20T04:23:45.794Z,97503.21
2018-03-20T04:26:14.569Z,97509.42
2018-03-20T04:28:43.346Z,97519.84
2018-03-20T04:31:11.978Z,97518.84
2018-03-20T04:33:40.867Z,97515.95
2018-03-20T04:36:09.539Z,97516.80
2018-03-20T04:38:38.906Z,97510.06
2018-03-20T04:41:07.419Z,97505.73
2018-03-20T04:43:36.120Z,97491.31
2018-03-20T04:46:04.929Z,97492.52
2018-03-20T04:48:33.741Z,97493.41
2018-03-20T04:51:03.274Z,97496.03
2018-03-20T04:53:32.534Z,97498.47
2018-03-20T04:56:01.312Z,97498.23
2018-03-20T04:58:30.122Z,97489.33
2018-03-20T05:00:58.919Z,97496.53
2018-03-20T05:03:27.840Z,97494.78
2018-03-20T05:05:56.651Z,97501.34
2018-03-20T05:08:25.226Z,97499.78
2018-03-20T05:10:54.753Z,97506.44
2018-03-20T05:13:23.461Z,97518.24
2018-03-20T05:15:52.270Z,97520.04
2018-03-20T05:18:20.974Z,97521.70
2018-03-20T05:20:55.466Z,97519.38
2018-03-20T05:23:24.136Z,97517.67
2018-03-20T05:25:52.959Z,97519.88
2018-03-20T05:28:21.752Z,97518.13
2018-03-20T05:30:51.908Z,97517.23
2018-03-20T05:33:21.219Z,97512.36
2018-03-20T05:35:50.035Z,97514.22
2018-03-20T05:38:18.818Z,97514.70
2018-03-20T05:40:48.134Z,97515.56
2018-03-20T05:43:17.685Z,97519.27
2018-03-20T05:45:46.501Z,97530.39
2018-03-20T05:51:25.880Z,97549.60
2018-03-20T05:53:54.606Z,97549.19
2018-03-20T05:56:23.305Z,97544.75
2018-03-20T05:58:51.925Z,97553.83
2018-03-20T06:01:21.508Z,97551.67
2018-03-20T06:03:50.194Z,97563.48
2018-03-20T06:06:18.857Z,97573.14
2018-03-20T06:08:47.584Z,97572.16
2018-03-20T06:11:16.873Z,97578.39
2018-03-20T06:13:45.873Z,97588.72
2018-03-20T06:16:15.226Z,97594.48
2018-03-20T06:18:45.414Z,97605.05
2018-03-20T06:21:14.221Z,97603.86
2018-03-20T06:23:43.721Z,97604.34
2018-03-20T06:26:12.426Z,97602.30
2018-03-20T06:28:41.124Z,97602.70
2018-03-20T06:31:10.566Z,97609.27
2018-03-20T06:33:39.240Z,97604.14
2018-03-20T06:36:07.811Z,97605.09
2018-03-20T06:38:36.475Z,97605.23
2018-03-20T06:41:05.148Z,97603.83
2018-03-20T06:43:33.780Z,97605.27
2018-03-20T06:46:03.315Z,97603.63
2018-03-20T06:48:33.311Z,97600.05
2018-03-20T06:51:02.512Z,97601.45
2018-03-20T06:53:31.252Z,97606.59
2018-03-20T06:56:00.681Z,97613.30
2018-03-20T06:58:29.425Z,97612.55
2018-03-20T07:00:58.156Z,97611.18
2018-03-20T07:03:26.807Z,97602.17
2018-03-20T07:05:56.227Z,97607.18
2018-03-20T07:08:26.336Z,97618.35
2018-03-20T07:10:54.946Z,97623.53
2018-03-20T07:13:24.577Z,97630.65
2018-03-20T07:15:53.207Z,97623.03
2018-03-20T07:18:23.433Z,97625.42
2018-03-20T07:20:52.719Z,97629.29
2018-03-20T07:23:21.417Z,97630.55
2018-03-20T07:25:51.010Z,97630.50
2018-03-20T07:28:19.677Z,97633.29
2018-03-20T07:30:48.334Z,97638.80
2018-03-20T07:33:17.890Z,97629.59
2018-03-20T07:35:46.698Z,97628.68
2018-03-20T07:38:15.404Z,97625.41
2018-03-20T07:40:45.143Z,97629.49
2018-03-20T07:43:14.166Z,97628.88
2018-03-20T07:45:44.383Z,97626.19
2018-03-20T07:48:14.144Z,97627.67
2018-03-20T07:50:43.323Z,97632.84
2018-03-20T07:53:12.046Z,97635.80
2018-03-20T07:55:41.111Z,97630.37
2018-03-20T07:58:11.671Z,97628.52
2018-03-20T08:00:41.868Z,97622.50
2018-03-20T08:03:10.877Z,97620.83
2018-03-20T08:05:39.514Z,97615.15
2018-03-20T08:08:08.156Z,97621.17
2018-03-20T08:10:37.563Z,97625.34
2018-03-20T08:13:06.524Z,97617.29
2018-03-20T08:15:36.869Z,97625.56
2018-03-20T08:18:05.822Z,97625.52
2018-03-20T08:20:34.447Z,97628.77
2018-03-20T08:23:04.003Z,97634.86
2018-03-20T08:25:32.694Z,97636.18
2018-03-20T08:28:02.089Z,97633.20
2018-03-20T08:30:30.676Z,97635.14
2018-03-20T08:32:59.340Z,97641.67
2018-03-20T08:35:28.040Z,97647.00
2018-03-20T08:37:57.448Z,97638.64
2018-03-20T08:40:26.916Z,97641.13
2018-03-20T08:42:55.455Z,97639.14
2018-03-20T08:45:24.309Z,97643.61
2018-03-20T08:47:53.198Z,97638.93
2018-03-20T08:50:22.798Z,97631.60
2018-03-20T08:52:51.355Z,97630.22
2018-03-20T08:55:20.160Z,97627.10
2018-03-20T08:57:48.873Z,97625.73
2018-03-20T09:00:17.529Z,97628.65
2018-03-20T09:02:46.157Z,97625.44
2018-03-20T09:05:15.649Z,97624.05
2018-03-20T09:07:44.317Z,97635.55
2018-03-20T09:10:12.933Z,97636.95
2018-03-20T09:12:41.581Z,97633.62
2018-03-20T09:15:10.269Z,97633.38
2018-03-20T09:17:39.062Z,97626.56
2018-03-20T09:20:09.082Z,97622.92
2018-03-20T09:22:38.068Z,97623.63
2018-03-20T09:25:07.621Z,97631.53
2018-03-20T09:27:36.281Z,97626.61
2018-03-20T09:30:05.320Z,97633.09
2018-03-20T09:32:34.747Z,97636.53
2018-03-20T09:35:04.294Z,97626.70
2018-03-20T09:37:32.928Z,97635.63
2018-03-20T09:40:01.970Z,97634.41
2018-03-20T09:42:30.881Z,97634.98
2018-03-20T09:45:00.680Z,97631.16
2018-03-20T09:47:30.449Z,97628.81
2018-03-20T09:50:00.769Z,97624.19
2018-03-20T09:52:29.584Z,97630.92
2018-03-20T09:54:58.244Z,97627.48
2018-03-20T09:57:27.272Z,97630.81
2018-03-20T09:59:55.913Z,97623.89
2018-03-20T10:02:25.265Z,97616.02
2018-03-20T10:04:54.674Z,97618.20
2018-03-20T10:07:24.365Z,97617.73
2018-03-20T10:09:54.067Z,97625.96
2018-03-20T10:12:22.812Z,97623.09
2018-03-20T10:14:52.333Z,97626.52
2018-03-20T10:17:21.642Z,97621.31
2018-03-20T10:19:52.034Z,97619.31
2018-03-20T10:22:21.727Z,97622.84
2018-03-20T10:24:50.489Z,97621.65
2018-03-20T10:27:20.043Z,97618.53
2018-03-20T10:29:49.156Z,97619.48
2018-03-20T10:32:18.906Z,97616.25
2018-03-20T10:34:48.855Z,97617.13
2018-03-20T10:37:17.865Z,97612.89
2018-03-20T10:39:47.203Z,97616.06
2018-03-20T10:42:16.296Z,97614.81
2018-03-20T10:44:45.752Z,97610.81
2018-03-20T10:47:15.100Z,97612.41
2018-03-20T10:49:45.186Z,97610.75
2018-03-20T10:52:14.292Z,97609.77
2018-03-20T10:54:43.539Z,97605.07
2018-03-20T10:57:13.159Z,97598.21
2018-03-20T10:59:42.341Z,97602.05
2018-03-20T11:02:16.999Z,97601.30
2018-03-20T11:04:46.111Z,97600.56
2018-03-20T11:07:16.826Z,97585.59
2018-03-20T11:09:46.310Z,97577.36
2018-03-20T11:12:16.330Z,97579.98
2018-03-20T11:14:44.981Z,97577.59
2018-03-20T11:17:14.394Z,97581.84
2018-03-20T11:19:44.203Z,97582.26
2018-03-20T11:22:13.308Z,97579.33
2018-03-20T11:24:42.500Z,97570.82
2018-03-20T11:27:11.392Z,97566.80
2018-03-20T11:29:41.916Z,97557.16
2018-03-20T11:32:10.638Z,97563.09
2018-03-20T11:34:40.237Z,97553.83
2018-03-20T11:37:10.612Z,97544.95
2018-03-20T11:39:39.885Z,97548.56
2018-03-20T11:42:09.868Z,97558.41
2018-03-20T11:44:38.646Z,97546.77
2018-03-20T11:47:08.677Z,97539.96
2018-03-20T11:49:37.888Z,97535.34
2018-03-20T11:52:06.572Z,97539.73
2018-03-20T11:54:36.511Z,97528.16
2018-03-20T11:57:05.250Z,97526.13
2018-03-20T11:59:34.271Z,97522.87
2018-03-20T12:02:03.788Z,97517.48
2018-03-20T12:04:33.124Z,97514.56
2018-03-20T12:07:04.350Z,97507.24
2018-03-20T12:09:51.021Z,97501.80
2018-03-20T12:12:20.035Z,97494.81
2018-03-20T12:14:49.555Z,97494.73
2018-03-20T12:17:19.756Z,97488.80
2018-03-20T12:19:49.818Z,97478.70
2018-03-20T12:22:19.462Z,97474.25
2018-03-20T12:24:48.755Z,97464.68
2018-03-20T12:27:18.185Z,97463.84
2018-03-20T12:29:47.712Z,97464.56
2018-03-20T12:32:16.824Z,97461.94
2018-03-20T12:34:45.931Z,97452.35
2018-03-20T12:37:15.005Z,97446.97
2018-03-20T12:39:44.469Z,97446.48
2018-03-20T12:42:14.649Z,97443.64
2018-03-20T12:44:45.452Z,97428.51
2018-03-20T12:47:16.340Z,97422.87
2018-03-20T12:49:45.222Z,97417.56
2018-03-20T12:52:15.173Z,97413.30
2018-03-20T12:54:45.241Z,97410.64
2018-03-20T12:57:14.426Z,97409.63
2018-03-20T12:59:43.241Z,97400.24
2018-03-20T13:02:11.894Z,97393.89
2018-03-20T13:04:40.701Z,97385.48
2018-03-20T13:07:10.248Z,97382.31
2018-03-20T13:09:41.040Z,97385.16
2018-03-20T13:12:11.350Z,97381.20
2018-03-20T13:14:41.571Z,97382.97
2018-03-20T13:17:11.105Z,97379.05
2018-03-20T13:19:39.777Z,97377.50
2018-03-20T13:22:08.658Z,97369.41
2018-03-20T13:24:37.680Z,97369.58
2018-03-20T13:27:07.162Z,97372.91
2018-03-20T13:29:36.584Z,97374.36
2018-03-20T13:32:05.970Z,97373.22
2018-03-20T13:34:34.874Z,97367.59
2018-03-20T13:37:03.859Z,97367.52
2018-03-20T13:39:33.282Z,97367.38
2018-03-20T13:42:02.441Z,97364.17
2018-03-20T13:44:31.537Z,97360.49
2018-03-20T13:47:00.237Z,97358.20
2018-03-20T13:49:29.354Z,97361.77
2018-03-20T13:51:58.130Z,97359.73
2018-03-20T13:54:26.972Z,97357.61
2018-03-20T13:56:55.986Z,97353.41
2018-03-20T13:59:24.754Z,97360.52
2018-03-20T14:01:54.213Z,97356.60
2018-03-20T14:04:24.047Z,97359.02
2018-03-20T14:06:53.689Z,97354.85
2018-03-20T14:09:23.740Z,97360.70
2018-03-20T14:11:53.778Z,97373.30
2018-03-20T14:14:22.461Z,97369.19
2018-03-20T14:16:52.752Z,97366.39
2018-03-20T14:19:21.605Z,97367.52
2018-03-20T14:21:50.428Z,97362.23
2018-03-20T14:24:18.989Z,97358.50
2018-03-20T14:26:48.471Z,97362.81
2018-03-20T14:29:17.044Z,97357.86
2018-03-20T14:31:46.989Z,97353.67
2018-03-20T14:34:16.054Z,97358.23
2018-03-20T14:36:45.593Z,97357.44
2018-03-20T14:39:16.088Z,97351.29
2018-03-20T14:41:45.190Z,97358.96
2018-03-20T14:44:14.103Z,97360.27
2018-03-20T14:46:42.830Z,97356.69
2018-03-20T14:49:11.666Z,97363.81
2018-03-20T14:51:40.414Z,97375.30
2018-03-20T14:54:08.934Z,97371.67
2018-03-20T14:56:37.605Z,97376.95
2018-03-20T14:59:07.105Z,97372.50
2018-03-20T15:01:35.691Z,97376.72
2018-03-20T15:04:04.617Z,97369.13
2018-03-20T15:06:33.810Z,97373.33
2018-03-20T15:09:02.857Z,97371.21
2018-03-20T15:11:32.225Z,97360.50
2018-03-20T15:14:01.412Z,97365.50
2018-03-20T15:16:30.906Z,97367.09
2018-03-20T15:18:59.565Z,97363.79
2018-03-20T15:21:29.069Z,97359.45
2018-03-20T15:23:57.803Z,97372.77
2018-03-20T15:26:26.577Z,97373.23
2018-03-20T15:28:55.667Z,97365.53
2018-03-20T15:31:24.446Z,97359.84
2018-03-20T15:33:53.219Z,97360.49
2018-03-20T15:36:21.935Z,97352.30
2018-03-20T15:38:51.583Z,97355.31
2018-03-20T15:41:20.583Z,97364.33
2018-03-20T15:43:50.366Z,97364.55
2018-03-20T15:46:19.463Z,97374.61
2018-03-20T15:48:48.240Z,97368.73
2018-03-20T15:51:17.780Z,97367.14
2018-03-20T15:53:46.572Z,97376.30
2018-03-20T15:56:16.151Z,97376.27
2018-03-20T15:58:45.712Z,97370.01
2018-03-20T16:01:15.349Z,97384.78
2018-03-20T16:03:44.162Z,97392.13
2018-03-20T16:06:13.693Z,97394.44
2018-03-20T16:08:43.533Z,97395.97
2018-03-20T16:11:12.723Z,97384.22
2018-03-20T16:13:41.706Z,97390.66
2018-03-20T16:16:11.365Z,97382.86
2018-03-20T16:18:40.654Z,97381.92
2018-03-20T16:21:10.412Z,97370.91
2018-03-20T16:23:40.519Z,97362.73
2018-03-20T16:26:09.650Z,97365.17
2018-03-20T16:28:38.663Z,97369.39
2018-03-20T16:31:08.507Z,97384.56
2018-03-20T16:33:37.555Z,97380.97
2018-03-20T16:36:08.121Z,97393.98
2018-03-20T16:38:38.212Z,97395.28
2018-03-20T16:41:07.771Z,97407.02
2018-03-20T16:43:37.583Z,97411.30
2018-03-20T16:46:06.705Z,97412.17
2018-03-20T16:48:35.654Z,97409.42
2018-03-20T16:51:04.604Z,97406.22
2018-03-20T16:53:33.364Z,97403.42
2018-03-20T16:56:03.083Z,97405.06
2018-03-20T16:58:32.557Z,97410.48
2018-03-20T17:01:01.506Z,97408.48
2018-03-20T17:03:31.552Z,97413.05
2018-03-20T17:06:02.614Z,97401.95
2018-03-20T17:08:32.445Z,97400.95
2018-03-20T17:11:01.373Z,97407.50
2018-03-20T17:13:31.234Z,97404.78
2018-03-20T17:16:00.441Z,97409.73
2018-03-20T17:18:29.470Z,97413.88
2018-03-20T17:20:58.689Z,97419.29
2018-03-20T17:23:27.700Z,97429.42
2018-03-20T17:25:56.898Z,97432.27
2018-03-20T17:28:26.923Z,97424.36
2018-03-20T17:30:58.023Z,97429.31
2018-03-20T17:33:27.597Z,97439.17
2018-03-20T17:35:56.529Z,97436.92
2018-03-20T17:38:27.864Z,97437.02
2018-03-20T17:40:57.121Z,97419.53
2018-03-20T17:43:27.073Z,97432.66
2018-03-20T17:45:56.019Z,97429.19
2018-03-20T17:48:25.063Z,97437.73
2018-03-20T17:50:54.413Z,97436.94
2018-03-20T17:53:23.350Z,97428.28
2018-03-20T17:55:52.350Z,97434.84
2018-03-20T17:58:22.412Z,97443.72
2018-03-20T18:00:52.984Z,97441.92
2018-03-20T18:03:21.934Z,97438.70
2018-03-20T18:05:51.604Z,97448.24
2018-03-20T18:08:20.609Z,97455.73
2018-03-20T18:10:50.301Z,97463.47
2018-03-20T18:13:20.623Z,97457.86
2018-03-20T18:15:49.902Z,97468.48
2018-03-20T18:18:19.021Z,97465.23
2018-03-20T18:20:48.307Z,97464.64
2018-03-20T18:23:18.516Z,97463.80
2018-03-20T18:25:48.359Z,97463.72
2018-03-20T18:28:17.724Z,97465.89
2018-03-20T18:30:46.741Z,97468.70
2018-03-20T18:33:15.770Z,97472.08
2018-03-20T18:35:44.859Z,97474.44
2018-03-20T18:38:14.085Z,97470.00
2018-03-20T18:40:43.468Z,97469.28
2018-03-20T18:43:12.476Z,97481.55
2018-03-20T18:45:42.419Z,97476.61
2018-03-20T18:48:11.472Z,97480.74
2018-03-20T18:50:40.788Z,97478.73
2018-03-20T18:53:10.166Z,97484.92
2018-03-20T18:55:39.931Z,97484.84
2018-03-20T18:58:09.666Z,97483.72
2018-03-20T19:00:38.733Z,97483.39
2018-03-20T19:03:08.308Z,97488.98
2018-03-20T19:05:38.115Z,97493.81
2018-03-20T19:08:08.462Z,97502.29
2018-03-20T19:10:37.566Z,97510.66
2018-03-20T19:13:06.471Z,97514.26
2018-03-20T19:15:35.481Z,97516.27
2018-03-20T19:18:04.651Z,97503.24
2018-03-20T19:20:33.791Z,97508.81
2018-03-20T19:23:03.364Z,97499.83
2018-03-20T19:25:32.897Z,97511.74
2018-03-20T19:28:02.005Z,97523.11
2018-03-20T19:30:31.900Z,97526.41
2018-03-20T19:33:00.867Z,97521.20
2018-03-20T19:35:29.997Z,97521.49
2018-03-20T19:37:59.835Z,97511.30
2018-03-20T19:40:30.143Z,97526.05
2018-03-20T19:42:59.466Z,97521.96
2018-03-20T19:45:28.804Z,97520.98
2018-03-20T19:47:58.240Z,97523.42
2018-03-20T19:50:27.951Z,97525.34
2018-03-20T19:52:57.879Z,97529.64
2018-03-20T19:55:27.135Z,97526.89
2018-03-20T19:57:56.174Z,97538.00
2018-03-20T20:00:25.421Z,97538.04
2018-03-20T20:02:54.985Z,97539.16
2018-03-20T20:05:24.091Z,97544.75
2018-03-20T20:07:53.106Z,97542.50
2018-03-20T20:10:22.159Z,97553.27
2018-03-20T20:12:51.106Z,97537.26
2018-03-20T20:15:20.106Z,97554.56
2018-03-20T20:17:51.197Z,97546.46
2018-03-20T20:20:20.619Z,97560.01
2018-03-20T20:22:51.208Z,97563.59
2018-03-20T20:25:20.350Z,97561.09
2018-03-20T20:27:50.497Z,97553.45
2018-03-20T20:30:19.759Z,97553.31
2018-03-20T20:32:50.879Z,97550.93
2018-03-20T20:35:20.284Z,97552.69
2018-03-20T20:37:49.580Z,97554.56
2018-03-20T20:40:18.610Z,97560.16
2018-03-20T20:42:48.763Z,97559.78
2018-03-20T20:45:18.851Z,97565.24
2018-03-20T20:47:47.946Z,97561.72
2018-03-20T20:50:17.071Z,97567.16
2018-03-20T20:52:46.064Z,97564.08
2018-03-20T20:55:15.118Z,97568.13
2018-03-20T20:57:43.847Z,97565.09
2018-03-20T21:00:13.851Z,97565.74
2018-03-20T21:02:43.168Z,97567.45
2018-03-20T21:05:13.307Z,97567.34
2018-03-20T21:07:43.353Z,97565.30
2018-03-20T21:10:13.323Z,97567.20
2018-03-20T21:12:43.065Z,97573.19
2018-03-20T21:15:12.564Z,97575.05
2018-03-20T21:17:41.838Z,97568.27
2018-03-20T21:20:11.930Z,97575.33
2018-03-20T21:22:40.804Z,97583.89
2018-03-20T21:25:10.608Z,97576.91
2018-03-20T21:27:40.817Z,97573.54
2018-03-20T21:30:09.682Z,97574.34
2018-03-20T21:32:38.851Z,97572.63
2018-03-20T21:35:09.065Z,97577.34
2018-03-20T21:37:39.345Z,97580.31
2018-03-20T21:40:08.679Z,97577.33
2018-03-20T21:42:39.083Z,97580.23
2018-03-20T21:45:07.920Z,97582.02
2018-03-20T21:47:36.704Z,97577.11
2018-03-20T21:50:06.189Z,97583.02
2018-03-20T21:52:34.943Z,97588.84
2018-03-20T21:55:03.959Z,97571.94
2018-03-20T21:57:33.413Z,97587.58
2018-03-20T22:00:02.220Z,97572.96
2018-03-20T22:02:30.946Z,97581.10
2018-03-20T22:04:59.713Z,97581.95
2018-03-20T22:07:28.904Z,97585.26
2018-03-20T22:09:58.368Z,97584.04
2018-03-20T22:12:27.980Z,97581.97
2018-03-20T22:14:57.465Z,97583.31
2018-03-20T22:17:26.354Z,97585.14
2018-03-20T22:19:55.007Z,97582.88
2018-03-20T22:22:24.210Z,97591.91
2018-03-20T22:24:53.101Z,97587.10
2018-03-20T22:27:21.923Z,97585.16
2018-03-20T22:29:50.667Z,97591.75
2018-03-20T22:32:19.485Z,97585.12
2018-03-20T22:34:49.208Z,97584.55
2018-03-20T22:37:18.929Z,97581.52
2018-03-20T22:39:48.352Z,97588.12
2018-03-20T22:42:18.204Z,97583.11
2018-03-20T22:44:47.657Z,97588.75
2018-03-20T22:47:16.562Z,97592.08
2018-03-20T22:49:45.275Z,97590.02
2018-03-20T22:52:14.228Z,97595.96
2018-03-20T22:54:43.062Z,97602.23
2018-03-20T22:57:11.686Z,97592.89
2018-03-20T22:59:41.256Z,97595.33
2018-03-20T23:02:10.281Z,97594.91
2018-03-20T23:04:38.997Z,97595.89
2018-03-20T23:07:07.900Z,97597.61
2018-03-20T23:09:37.665Z,97594.73
2018-03-20T23:12:06.774Z,97598.56
2018-03-20T23:14:35.525Z,97597.42
2018-03-20T23:17:04.148Z,97605.98
2018-03-20T23:19:32.820Z,97610.33
2018-03-20T23:22:01.558Z,97606.36
2018-03-20T23:24:30.234Z,97602.09
2018-03-20T23:26:59.133Z,97604.69
2018-03-20T23:29:28.696Z,97613.91
2018-03-20T23:31:57.254Z,97613.76
2018-03-20T23:34:26.408Z,97612.42
2018-03-20T23:36:55.092Z,97614.48
2018-03-20T23:39:24.661Z,97619.44
2018-03-20T23:41:53.967Z,97618.70
2018-03-20T23:44:23.549Z,97611.78
2018-03-20T23:46:52.146Z,97617.72
2018-03-20T23:49:20.837Z,97619.55
2018-03-20T23:51:49.471Z,97617.48
2018-03-20T23:54:18.251Z,97616.25
2018-03-20T23:56:46.964Z,97609.17
2018-03-20T23:59:15.622Z,97616.52
